createdAt,value
2017-01-22T00:00:18.185Z,82.14
2017-01-22T00:01:24.462Z,81.95
2017-01-22T00:02:29.650Z,81.76
2017-01-22T00:03:35.808Z,82.61
2017-01-22T00:04:41.031Z,81.85
2017-01-22T00:05:46.226Z,82.04
2017-01-22T00:06:52.406Z,81.85
2017-01-22T00:07:57.585Z,82.61
2017-01-22T00:09:03.745Z,82.51
2017-01-22T00:10:08.937Z,82.32
2017-01-22T00:11:14.137Z,82.89
2017-01-22T00:12:19.332Z,82.99
2017-01-22T00:13:24.531Z,82.8
2017-01-22T00:14:30.700Z,82.7
2017-01-22T00:15:36.920Z,82.8
2017-01-22T00:16:43.077Z,83.65
2017-01-22T00:17:46.406Z,83.46
2017-01-22T00:18:49.648Z,83.46
2017-01-22T00:19:53.847Z,83.84
2017-01-22T00:21:00.015Z,84.41
2017-01-22T00:22:05.215Z,84.5
2017-01-22T00:23:11.382Z,84.5
2017-01-22T00:24:17.610Z,84.78
2017-01-22T00:25:20.771Z,84.78
2017-01-22T00:26:25.000Z,84.5
2017-01-22T00:27:31.170Z,84.97
2017-01-22T00:28:36.377Z,84.69
2017-01-22T00:29:40.612Z,84.97
2017-01-22T00:30:45.784Z,84.69
2017-01-22T00:31:51.944Z,84.78
2017-01-22T00:32:57.136Z,84.78
2017-01-22T00:34:01.369Z,84.88
2017-01-22T00:35:06.637Z,85.35
2017-01-22T00:36:10.837Z,85.44
2017-01-22T00:37:17.020Z,85.44
2017-01-22T00:38:23.202Z,84.97
2017-01-22T00:39:29.337Z,85.63
2017-01-22T00:40:35.503Z,85.72
2017-01-22T00:41:39.719Z,85.25
2017-01-22T00:42:44.918Z,85.63
2017-01-22T00:43:49.144Z,85.91
2017-01-22T00:44:54.342Z,85.72
2017-01-22T00:45:58.647Z,86.1
2017-01-22T00:47:04.808Z,86.01
2017-01-22T00:48:09.997Z,86.1
2017-01-22T00:49:15.200Z,86.1
2017-01-22T00:50:18.428Z,86.01
2017-01-22T00:51:24.585Z,86.29
2017-01-22T00:52:29.857Z,86.01
2017-01-22T00:53:34.062Z,86.01
2017-01-22T00:54:40.233Z,86.19
2017-01-22T00:55:45.453Z,86.01
2017-01-22T00:56:50.623Z,86.01
2017-01-22T00:57:55.807Z,86.29
2017-01-22T00:59:01.006Z,85.82
2017-01-22T01:00:07.169Z,86.01
2017-01-22T01:01:13.329Z,86.63
2017-01-22T01:02:16.586Z,86.1
2017-01-22T01:03:21.751Z,86.1
2017-01-22T01:04:27.913Z,86.06
2017-01-22T01:05:33.108Z,85.96
2017-01-22T01:06:39.281Z,85.96
2017-01-22T01:07:43.517Z,85.82
2017-01-22T01:08:49.681Z,85.77
2017-01-22T01:09:52.904Z,86.53
2017-01-22T01:10:59.058Z,86.34
2017-01-22T01:12:03.340Z,86.91
2017-01-22T01:13:07.572Z,86.44
2017-01-22T01:14:10.911Z,86.72
2017-01-22T01:15:15.150Z,86.82
2017-01-22T01:16:20.337Z,86.63
2017-01-22T01:17:26.505Z,86.91
2017-01-22T01:18:31.701Z,86.82
2017-01-22T01:19:37.863Z,87
2017-01-22T01:20:43.092Z,86.82
2017-01-22T01:21:49.244Z,87.19
2017-01-22T01:22:55.390Z,87.24
2017-01-22T01:24:00.584Z,87.05
2017-01-22T01:25:06.745Z,87.05
2017-01-22T01:26:12.009Z,87.05
2017-01-22T01:27:18.188Z,87.38
2017-01-22T01:28:23.354Z,86.82
2017-01-22T01:29:28.541Z,86.72
2017-01-22T01:30:34.710Z,87.24
2017-01-22T01:31:39.915Z,87.19
2017-01-22T01:32:44.138Z,87.38
2017-01-22T01:33:48.325Z,87.1
2017-01-22T01:34:52.525Z,87.1
2017-01-22T01:35:55.756Z,87
2017-01-22T01:37:01.915Z,86.91
2017-01-22T01:38:07.101Z,87.1
2017-01-22T01:39:13.281Z,87.38
2017-01-22T01:40:19.422Z,87.29
2017-01-22T01:41:25.578Z,87.38
2017-01-22T01:42:31.738Z,87.29
2017-01-22T01:43:35.980Z,87.1
2017-01-22T01:44:41.149Z,87.19
2017-01-22T01:45:46.337Z,87.19
2017-01-22T01:46:50.534Z,87.1
2017-01-22T01:47:54.779Z,87.19
2017-01-22T01:48:59.974Z,87.29
2017-01-22T01:50:06.143Z,87.29
2017-01-22T01:51:11.375Z,87.19
2017-01-22T01:52:15.684Z,87.38
2017-01-22T01:53:19.796Z,87.38
2017-01-22T01:54:26.091Z,87.66
2017-01-22T01:55:31.360Z,87.57
2017-01-22T01:56:37.527Z,87.66
2017-01-22T01:57:43.721Z,87.48
2017-01-22T01:58:49.870Z,87.48
2017-01-22T01:59:55.048Z,87.48
2017-01-22T02:00:59.266Z,87.57
2017-01-22T02:02:04.457Z,87.66
2017-01-22T02:03:10.629Z,88.23
2017-01-22T02:04:14.838Z,88.04
2017-01-22T02:05:20.044Z,88.13
2017-01-22T02:06:25.229Z,87.95
2017-01-22T02:07:30.432Z,88.13
2017-01-22T02:08:35.620Z,87.95
2017-01-22T02:09:39.847Z,87.95
2017-01-22T02:10:44.091Z,88.51
2017-01-22T02:11:48.289Z,88.7
2017-01-22T02:12:54.448Z,88.7
2017-01-22T02:13:58.768Z,88.79
2017-01-22T02:15:03.954Z,88.6
2017-01-22T02:16:09.158Z,88.79
2017-01-22T02:17:14.326Z,88.7
2017-01-22T02:18:20.483Z,88.6
2017-01-22T02:19:24.714Z,88.6
2017-01-22T02:20:28.915Z,88.32
2017-01-22T02:21:34.116Z,88.51
2017-01-22T02:22:39.283Z,88.6
2017-01-22T02:23:45.464Z,88.51
2017-01-22T02:24:51.621Z,88.6
2017-01-22T02:25:57.792Z,88.51
2017-01-22T02:27:04.002Z,88.51
2017-01-22T02:28:10.159Z,88.51
2017-01-22T02:29:14.358Z,88.51
2017-01-22T02:30:20.524Z,88.6
2017-01-22T02:31:26.682Z,88.7
2017-01-22T02:32:31.889Z,89.08
2017-01-22T02:33:38.052Z,88.89
2017-01-22T02:34:43.215Z,89.17
2017-01-22T02:35:49.432Z,88.89
2017-01-22T02:36:54.587Z,89.27
2017-01-22T02:38:00.750Z,89.17
2017-01-22T02:39:06.909Z,88.98
2017-01-22T02:40:13.087Z,89.36
2017-01-22T02:41:17.314Z,89.27
2017-01-22T02:42:23.515Z,89.27
2017-01-22T02:43:29.720Z,89.17
2017-01-22T02:44:35.840Z,89.45
2017-01-22T02:45:40.065Z,89.36
2017-01-22T02:46:46.286Z,89.36
2017-01-22T02:47:52.444Z,89.17
2017-01-22T02:48:56.675Z,89.27
2017-01-22T02:50:01.865Z,89.27
2017-01-22T02:51:08.028Z,89.36
2017-01-22T02:52:13.221Z,89.93
2017-01-22T02:53:18.379Z,90.02
2017-01-22T02:54:23.587Z,89.64
2017-01-22T02:55:27.774Z,89.93
2017-01-22T02:56:32.984Z,90.21
2017-01-22T02:57:38.175Z,90.21
2017-01-22T02:58:44.384Z,89.93
2017-01-22T02:59:50.510Z,89.93
2017-01-22T03:00:56.679Z,90.02
2017-01-22T03:02:02.841Z,89.93
2017-01-22T03:03:08.999Z,89.74
2017-01-22T03:04:14.196Z,89.93
2017-01-22T03:05:18.395Z,90.02
2017-01-22T03:06:24.558Z,89.83
2017-01-22T03:07:28.789Z,90.12
2017-01-22T03:08:34.018Z,89.88
2017-01-22T03:09:39.231Z,89.93
2017-01-22T03:10:44.426Z,89.98
2017-01-22T03:11:49.617Z,90.02
2017-01-22T03:12:53.947Z,90.26
2017-01-22T03:13:59.101Z,90.55
2017-01-22T03:15:04.254Z,90.26
2017-01-22T03:16:09.432Z,90.36
2017-01-22T03:17:15.593Z,90.26
2017-01-22T03:18:20.794Z,90.36
2017-01-22T03:19:25.983Z,90.55
2017-01-22T03:20:32.144Z,90.26
2017-01-22T03:21:36.375Z,90.45
2017-01-22T03:22:41.566Z,90.26
2017-01-22T03:23:47.719Z,90.36
2017-01-22T03:24:52.917Z,90.45
2017-01-22T03:25:58.106Z,90.26
2017-01-22T03:27:03.294Z,90.26
2017-01-22T03:28:09.454Z,90.07
2017-01-22T03:29:14.751Z,90.45
2017-01-22T03:30:19.971Z,90.36
2017-01-22T03:31:25.179Z,90.36
2017-01-22T03:32:30.377Z,90.36
2017-01-22T03:33:35.598Z,90.17
2017-01-22T03:34:40.769Z,91.11
2017-01-22T03:35:45.980Z,90.26
2017-01-22T03:36:50.316Z,90.26
2017-01-22T03:37:55.528Z,90.73
2017-01-22T03:39:00.737Z,91.02
2017-01-22T03:40:06.898Z,90.83
2017-01-22T03:41:13.063Z,91.3
2017-01-22T03:42:18.224Z,90.17
2017-01-22T03:43:23.402Z,91.11
2017-01-22T03:44:29.635Z,91.02
2017-01-22T03:45:32.896Z,90.73
2017-01-22T03:46:38.085Z,90.73
2017-01-22T03:47:43.278Z,90.64
2017-01-22T03:48:48.499Z,91.39
2017-01-22T03:49:54.695Z,91.11
2017-01-22T03:50:59.938Z,90.92
2017-01-22T03:52:04.219Z,91.02
2017-01-22T03:53:09.405Z,91.02
2017-01-22T03:54:14.596Z,91.02
2017-01-22T03:55:20.794Z,90.92
2017-01-22T03:56:25.994Z,91.11
2017-01-22T03:57:31.154Z,90.73
2017-01-22T03:58:35.405Z,90.92
2017-01-22T03:59:39.624Z,91.2
2017-01-22T04:00:44.788Z,90.92
2017-01-22T04:01:50.969Z,91.11
2017-01-22T04:02:57.140Z,91.2
2017-01-22T04:04:02.380Z,91.02
2017-01-22T04:05:08.534Z,90.83
2017-01-22T04:06:14.700Z,90.83
2017-01-22T04:07:19.915Z,90.92
2017-01-22T04:08:25.077Z,91.2
2017-01-22T04:09:31.236Z,91.39
2017-01-22T04:10:37.449Z,91.39
2017-01-22T04:11:42.644Z,91.77
2017-01-22T04:12:48.802Z,91.86
2017-01-22T04:13:54.141Z,91.86
2017-01-22T04:14:59.339Z,91.49
2017-01-22T04:16:04.599Z,91.58
2017-01-22T04:17:10.747Z,92.14
2017-01-22T04:18:15.996Z,92.43
2017-01-22T04:19:22.106Z,92.33
2017-01-22T04:20:27.348Z,92.24
2017-01-22T04:21:33.508Z,92.52
2017-01-22T04:22:39.674Z,92.43
2017-01-22T04:23:44.865Z,92.61
2017-01-22T04:24:50.062Z,92.71
2017-01-22T04:25:56.223Z,92.52
2017-01-22T04:27:01.465Z,92.71
2017-01-22T04:28:07.628Z,92.8
2017-01-22T04:29:12.823Z,92.14
2017-01-22T04:30:19.019Z,92.61
2017-01-22T04:31:25.168Z,92.43
2017-01-22T04:32:30.332Z,92.52
2017-01-22T04:33:36.497Z,92.71
2017-01-22T04:34:41.691Z,92.61
2017-01-22T04:35:45.909Z,92.24
2017-01-22T04:36:52.075Z,92.9
2017-01-22T04:37:58.237Z,92.43
2017-01-22T04:39:04.399Z,92.43
2017-01-22T04:40:09.591Z,92.52
2017-01-22T04:41:14.841Z,92.71
2017-01-22T04:42:19.050Z,92.52
2017-01-22T04:43:25.285Z,92.33
2017-01-22T04:44:29.379Z,92.43
2017-01-22T04:45:35.537Z,92.33
2017-01-22T04:46:41.747Z,92.05
2017-01-22T04:47:47.909Z,92.33
2017-01-22T04:48:54.166Z,92.43
2017-01-22T04:50:00.327Z,92.52
2017-01-22T04:51:04.515Z,92.43
2017-01-22T04:52:08.748Z,92.43
2017-01-22T04:53:13.948Z,91.96
2017-01-22T04:54:19.156Z,92.33
2017-01-22T04:55:25.323Z,92.43
2017-01-22T04:56:30.510Z,92.43
2017-01-22T04:57:34.714Z,92.33
2017-01-22T04:58:40.878Z,92.52
2017-01-22T04:59:47.050Z,92.43
2017-01-22T05:00:53.209Z,92.33
2017-01-22T05:01:56.475Z,92.33
2017-01-22T05:03:00.670Z,92.33
2017-01-22T05:04:06.834Z,92.71
2017-01-22T05:05:11.085Z,92.43
2017-01-22T05:06:15.282Z,92.99
2017-01-22T05:07:20.518Z,92.99
2017-01-22T05:08:25.843Z,92.8
2017-01-22T05:09:31.038Z,92.9
2017-01-22T05:10:36.204Z,92.61
2017-01-22T05:11:41.372Z,92.9
2017-01-22T05:12:47.540Z,92.99
2017-01-22T05:13:52.696Z,92.61
2017-01-22T05:14:57.875Z,92.8
2017-01-22T05:16:03.025Z,92.9
2017-01-22T05:17:09.189Z,92.61
2017-01-22T05:18:15.347Z,92.8
2017-01-22T05:19:21.506Z,92.99
2017-01-22T05:20:26.726Z,92.8
2017-01-22T05:21:32.900Z,92.52
2017-01-22T05:22:38.101Z,92.9
2017-01-22T05:23:42.345Z,92.9
2017-01-22T05:24:48.523Z,92.99
2017-01-22T05:25:54.686Z,92.9
2017-01-22T05:27:00.856Z,92.99
2017-01-22T05:28:06.039Z,92.8
2017-01-22T05:29:11.247Z,93.18
2017-01-22T05:30:17.452Z,92.99
2017-01-22T05:31:21.677Z,93.37
2017-01-22T05:32:27.841Z,92.8
2017-01-22T05:33:32.073Z,92.99
2017-01-22T05:34:38.231Z,92.99
2017-01-22T05:35:44.418Z,92.9
2017-01-22T05:36:48.645Z,92.8
2017-01-22T05:37:54.818Z,92.99
2017-01-22T05:38:59.018Z,92.99
2017-01-22T05:40:05.176Z,93.18
2017-01-22T05:41:11.338Z,92.71
2017-01-22T05:42:15.568Z,92.8
2017-01-22T05:43:20.749Z,92.61
2017-01-22T05:44:25.947Z,92.8
2017-01-22T05:45:32.109Z,92.71
2017-01-22T05:46:38.264Z,92.99
2017-01-22T05:47:43.463Z,92.61
2017-01-22T05:48:46.723Z,92.9
2017-01-22T05:49:52.964Z,92.8
2017-01-22T05:50:58.123Z,92.8
2017-01-22T05:52:03.333Z,92.9
2017-01-22T05:53:09.477Z,92.61
2017-01-22T05:54:14.702Z,92.52
2017-01-22T05:55:20.820Z,92.52
2017-01-22T05:56:27.040Z,92.99
2017-01-22T05:57:32.213Z,92.99
2017-01-22T05:58:37.404Z,92.9
2017-01-22T05:59:42.591Z,92.99
2017-01-22T06:00:48.754Z,93.09
2017-01-22T06:01:54.072Z,92.99
2017-01-22T06:02:59.238Z,92.61
2017-01-22T06:04:03.466Z,92.71
2017-01-22T06:05:09.634Z,92.61
2017-01-22T06:06:15.817Z,92.61
2017-01-22T06:07:20.987Z,92.61
2017-01-22T06:08:27.151Z,92.9
2017-01-22T06:09:32.344Z,92.9
2017-01-22T06:10:37.561Z,93.09
2017-01-22T06:11:43.704Z,92.43
2017-01-22T06:12:49.863Z,92.61
2017-01-22T06:13:56.027Z,92.71
2017-01-22T06:15:02.187Z,92.8
2017-01-22T06:16:08.400Z,92.71
2017-01-22T06:17:12.598Z,92.61
2017-01-22T06:18:16.791Z,92.71
2017-01-22T06:19:22.004Z,92.52
2017-01-22T06:20:27.200Z,92.43
2017-01-22T06:21:32.397Z,92.52
2017-01-22T06:22:38.564Z,92.43
2017-01-22T06:23:43.762Z,92.99
2017-01-22T06:24:48.952Z,93.09
2017-01-22T06:25:55.149Z,93.09
2017-01-22T06:27:00.305Z,92.61
2017-01-22T06:28:05.497Z,92.8
2017-01-22T06:29:09.741Z,92.52
2017-01-22T06:30:15.850Z,92.52
2017-01-22T06:31:22.012Z,92.61
2017-01-22T06:32:27.201Z,92.61
2017-01-22T06:33:33.373Z,92.52
2017-01-22T06:34:37.654Z,92.43
2017-01-22T06:35:43.828Z,92.24
2017-01-22T06:36:49.008Z,92.14
2017-01-22T06:37:53.208Z,92.43
2017-01-22T06:38:58.407Z,92.43
2017-01-22T06:40:04.586Z,92.52
2017-01-22T06:41:08.819Z,92.14
2017-01-22T06:42:13.011Z,92.24
2017-01-22T06:43:17.256Z,92.14
2017-01-22T06:44:23.398Z,92.71
2017-01-22T06:45:28.697Z,92.43
2017-01-22T06:46:32.982Z,92.52
2017-01-22T06:47:39.147Z,92.61
2017-01-22T06:48:44.482Z,92.43
2017-01-22T06:49:50.667Z,92.8
2017-01-22T06:50:56.802Z,92.43
2017-01-22T06:52:01.026Z,92.71
2017-01-22T06:53:06.198Z,92.61
2017-01-22T06:54:12.354Z,92.33
2017-01-22T06:55:17.615Z,92.43
2017-01-22T06:56:21.711Z,92.24
2017-01-22T06:57:26.880Z,92.43
2017-01-22T06:58:32.056Z,92.14
2017-01-22T06:59:36.272Z,92.43
2017-01-22T07:00:40.491Z,92.52
2017-01-22T07:01:44.687Z,92.33
2017-01-22T07:02:50.851Z,92.24
2017-01-22T07:03:55.082Z,92.43
2017-01-22T07:05:00.284Z,92.14
2017-01-22T07:06:05.490Z,92.24
2017-01-22T07:07:11.762Z,92.14
2017-01-22T07:08:16.870Z,92.33
2017-01-22T07:09:23.022Z,92.24
2017-01-22T07:10:29.246Z,92.43
2017-01-22T07:11:34.457Z,92.43
2017-01-22T07:12:39.645Z,92.61
2017-01-22T07:13:45.861Z,92.43
2017-01-22T07:14:51.000Z,92.33
2017-01-22T07:15:54.230Z,92.43
2017-01-22T07:17:00.395Z,92.33
2017-01-22T07:18:06.652Z,92.33
2017-01-22T07:19:10.876Z,92.33
2017-01-22T07:20:15.188Z,92.43
2017-01-22T07:21:21.354Z,92.43
2017-01-22T07:22:27.505Z,92.33
2017-01-22T07:23:33.667Z,92.52
2017-01-22T07:24:39.831Z,92.43
2017-01-22T07:25:45.030Z,92.43
2017-01-22T07:26:51.227Z,92.43
2017-01-22T07:27:57.381Z,92.33
2017-01-22T07:29:02.570Z,92.05
2017-01-22T07:30:06.762Z,92.14
2017-01-22T07:31:11.966Z,92.71
2017-01-22T07:32:18.136Z,92.61
2017-01-22T07:33:23.329Z,92.14
2017-01-22T07:34:29.483Z,92.24
2017-01-22T07:35:33.720Z,92.14
2017-01-22T07:36:37.957Z,92.24
2017-01-22T07:37:43.119Z,92.24
2017-01-22T07:38:48.319Z,92.52
2017-01-22T07:39:52.536Z,92.24
2017-01-22T07:40:58.698Z,92.24
2017-01-22T07:42:04.852Z,92.61
2017-01-22T07:43:09.071Z,92.24
2017-01-22T07:44:15.242Z,92.52
2017-01-22T07:45:20.429Z,92.14
2017-01-22T07:46:25.617Z,92.05
2017-01-22T07:47:30.781Z,92.43
2017-01-22T07:48:37.006Z,92.24
2017-01-22T07:49:43.172Z,92.14
2017-01-22T07:50:47.395Z,92.33
2017-01-22T07:51:53.551Z,92.33
2017-01-22T07:52:59.711Z,92.33
2017-01-22T07:54:05.870Z,92.52
2017-01-22T07:55:12.027Z,92.14
2017-01-22T07:56:17.201Z,92.71
2017-01-22T07:57:23.357Z,92.71
2017-01-22T07:58:27.559Z,92.61
2017-01-22T07:59:32.755Z,92.8
2017-01-22T08:00:36.978Z,92.52
2017-01-22T08:01:40.243Z,92.99
2017-01-22T08:02:45.452Z,92.76
2017-01-22T08:03:50.642Z,93.32
2017-01-22T08:04:56.805Z,94.03
2017-01-22T08:06:02.970Z,93.84
2017-01-22T08:07:08.241Z,94.46
2017-01-22T08:08:13.423Z,94.56
2017-01-22T08:09:19.602Z,94.79
2017-01-22T08:10:24.759Z,95.26
2017-01-22T08:11:30.921Z,94.65
2017-01-22T08:12:36.123Z,94.04
2017-01-22T08:13:42.294Z,93.85
2017-01-22T08:14:48.468Z,93.09
2017-01-22T08:15:54.626Z,92.1
2017-01-22T08:17:00.796Z,90.39
2017-01-22T08:18:06.962Z,89.11
2017-01-22T08:19:10.228Z,85.61
2017-01-22T08:20:13.516Z,82.62
2017-01-22T08:21:18.698Z,79.96
2017-01-22T08:22:24.833Z,73.18
2017-01-22T08:23:31.006Z,70.15
2017-01-22T08:24:37.193Z,68.15
2017-01-22T08:25:43.358Z,66.29
2017-01-22T08:26:48.548Z,64.3
2017-01-22T08:27:53.858Z,63.07
2017-01-22T08:29:00.042Z,62.05
2017-01-22T08:30:04.276Z,61.68
2017-01-22T08:31:10.453Z,60.53
2017-01-22T08:32:15.621Z,59.81
2017-01-22T08:33:20.842Z,59.05
2017-01-22T08:34:25.083Z,57.53
2017-01-22T08:35:31.303Z,57.18
2017-01-22T08:36:37.417Z,56.61
2017-01-22T08:37:41.667Z,55.18
2017-01-22T08:38:46.834Z,54.55
2017-01-22T08:39:52.044Z,53.78
2017-01-22T08:40:58.249Z,52.55
2017-01-22T08:42:03.460Z,51.25
2017-01-22T08:43:08.592Z,50.87
2017-01-22T08:44:14.774Z,50.96
2017-01-22T08:45:19.952Z,50.32
2017-01-22T08:46:25.155Z,49.37
2017-01-22T08:47:30.367Z,48.42
2017-01-22T08:48:35.575Z,47.37
2017-01-22T08:49:40.778Z,46.04
2017-01-22T08:50:44.992Z,45.95
2017-01-22T08:51:49.250Z,46.33
2017-01-22T08:52:54.370Z,45.75
2017-01-22T08:54:00.546Z,44.92
2017-01-22T08:55:06.738Z,44.26
2017-01-22T08:56:12.911Z,43.59
2017-01-22T08:57:19.111Z,43.23
2017-01-22T08:58:25.278Z,42.85
2017-01-22T08:59:30.481Z,41.61
2017-01-22T09:00:35.705Z,40.77
2017-01-22T09:01:40.911Z,39.63
2017-01-22T09:02:46.155Z,40.39
2017-01-22T09:03:52.329Z,40.48
2017-01-22T09:04:57.530Z,40.3
2017-01-22T09:06:02.750Z,39.92
2017-01-22T09:07:07.060Z,39.63
2017-01-22T09:08:10.325Z,39.27
2017-01-22T09:09:15.538Z,38.51
2017-01-22T09:10:20.727Z,38.03
2017-01-22T09:11:26.897Z,36.79
2017-01-22T09:12:32.113Z,37.74
2017-01-22T09:13:36.318Z,37.65
2017-01-22T09:14:42.497Z,36.88
2017-01-22T09:15:47.694Z,37.08
2017-01-22T09:16:52.960Z,36.9
2017-01-22T09:17:58.136Z,37.17
2017-01-22T09:19:03.392Z,37.17
2017-01-22T09:20:07.619Z,37.46
2017-01-22T09:21:12.840Z,37.46
2017-01-22T09:22:19.016Z,37.27
2017-01-22T09:23:24.231Z,37.27
2017-01-22T09:24:30.524Z,36.79
2017-01-22T09:25:34.755Z,37.08
2017-01-22T09:26:40.935Z,37.17
2017-01-22T09:27:47.134Z,37.27
2017-01-22T09:28:53.316Z,37.46
2017-01-22T09:29:58.543Z,37.27
2017-01-22T09:31:02.796Z,37.08
2017-01-22T09:32:09.122Z,36.71
2017-01-22T09:33:15.301Z,35.95
2017-01-22T09:34:19.508Z,35.76
2017-01-22T09:35:23.796Z,35.47
2017-01-22T09:36:30.006Z,35.47
2017-01-22T09:37:36.211Z,35.76
2017-01-22T09:38:42.353Z,35.47
2017-01-22T09:39:47.564Z,35.38
2017-01-22T09:40:53.763Z,36.03
2017-01-22T09:41:58.986Z,36.62
2017-01-22T09:43:05.159Z,36.43
2017-01-22T09:44:09.370Z,35.47
2017-01-22T09:45:13.581Z,35.02
2017-01-22T09:46:17.875Z,34.73
2017-01-22T09:47:23.082Z,34.34
2017-01-22T09:48:29.319Z,34.25
2017-01-22T09:49:34.532Z,33.95
2017-01-22T09:50:40.682Z,34.98
2017-01-22T09:51:45.892Z,34.61
2017-01-22T09:52:52.071Z,34.71
2017-01-22T09:53:58.265Z,35.19
2017-01-22T09:55:04.420Z,34.71
2017-01-22T09:56:06.718Z,34.42
2017-01-22T09:57:11.008Z,34.71
2017-01-22T09:58:17.187Z,35.36
2017-01-22T09:59:22.463Z,36.12
2017-01-22T10:00:28.616Z,35.46
2017-01-22T10:01:33.821Z,35.19
2017-01-22T10:02:39.994Z,34.9
2017-01-22T10:03:45.203Z,34.81
2017-01-22T10:05:55.618Z,35.46
2017-01-22T10:06:59.862Z,36.03
2017-01-22T10:08:06.051Z,36.14
2017-01-22T10:09:12.225Z,35
2017-01-22T10:10:17.439Z,34.81
2017-01-22T10:11:21.653Z,34.81
2017-01-22T10:12:26.832Z,35.08
2017-01-22T10:13:32.042Z,35.36
2017-01-22T10:14:38.214Z,35.64
2017-01-22T10:15:42.426Z,35.93
2017-01-22T10:16:47.646Z,36.03
2017-01-22T10:17:53.818Z,35.93
2017-01-22T10:18:56.102Z,36.03
2017-01-22T10:20:00.344Z,36.22
2017-01-22T10:21:04.606Z,36.03
2017-01-22T10:22:10.835Z,36.12
2017-01-22T10:23:16.026Z,35.28
2017-01-22T10:24:22.202Z,34.14
2017-01-22T10:25:28.379Z,34.52
2017-01-22T10:26:33.598Z,33.68
2017-01-22T10:27:39.775Z,34.06
2017-01-22T10:28:45.953Z,33.87
2017-01-22T10:29:52.137Z,33.39
2017-01-22T10:30:57.381Z,33.76
2017-01-22T10:32:02.575Z,33.11
2017-01-22T10:33:07.780Z,32.26
2017-01-22T10:34:13.961Z,31.5
2017-01-22T10:35:19.228Z,30.56
2017-01-22T10:36:23.461Z,30.75
2017-01-22T10:37:29.647Z,31.13
2017-01-22T10:38:32.891Z,30.56
2017-01-22T10:39:37.100Z,31.02
2017-01-22T10:40:43.280Z,31.4
2017-01-22T10:41:48.483Z,31.79
2017-01-22T10:42:52.731Z,31.88
2017-01-22T10:43:58.901Z,32.55
2017-01-22T10:45:05.081Z,32.55
2017-01-22T10:46:10.290Z,32.82
2017-01-22T10:47:16.474Z,32.06
2017-01-22T10:48:20.721Z,32.63
2017-01-22T10:49:25.120Z,33.39
2017-01-22T10:50:31.326Z,33.39
2017-01-22T10:51:36.534Z,33.85
2017-01-22T10:52:40.813Z,34.14
2017-01-22T10:53:45.989Z,34.71
2017-01-22T10:54:52.171Z,34.42
2017-01-22T10:55:57.377Z,34.33
2017-01-22T10:57:01.678Z,34.52
2017-01-22T10:58:06.927Z,33.66
2017-01-22T10:59:12.161Z,33.37
2017-01-22T11:00:18.454Z,34.03
2017-01-22T11:01:23.632Z,34.03
2017-01-22T11:02:27.861Z,34.69
2017-01-22T11:03:34.036Z,35.25
2017-01-22T11:04:40.249Z,34.87
2017-01-22T11:05:45.419Z,34.47
2017-01-22T11:06:51.601Z,34.56
2017-01-22T11:07:57.772Z,34.09
2017-01-22T11:09:02.978Z,34.64
2017-01-22T11:10:07.197Z,35.97
2017-01-22T11:11:12.397Z,36.35
2017-01-22T11:12:18.616Z,36.74
2017-01-22T11:13:23.841Z,37.38
2017-01-22T11:14:28.196Z,37.19
2017-01-22T11:15:33.301Z,37.19
2017-01-22T11:16:38.503Z,37.27
2017-01-22T11:17:44.674Z,39.07
2017-01-22T11:18:48.009Z,42
2017-01-22T11:19:53.223Z,43.24
2017-01-22T11:20:59.406Z,41.62
2017-01-22T11:22:03.611Z,39.61
2017-01-22T11:23:09.785Z,39.42
2017-01-22T11:24:14.994Z,39.68
2017-01-22T11:25:20.196Z,41.01
2017-01-22T11:26:24.427Z,42.05
2017-01-22T11:27:30.572Z,43.67
2017-01-22T11:28:35.779Z,45
2017-01-22T11:29:40.961Z,45.28
2017-01-22T11:30:46.132Z,46.02
2017-01-22T11:31:52.339Z,46.4
2017-01-22T11:32:58.500Z,46.88
2017-01-22T11:34:02.709Z,47.44
2017-01-22T11:35:07.911Z,47.34
2017-01-22T11:36:14.077Z,46.88
2017-01-22T11:37:20.248Z,46.75
2017-01-22T11:38:25.457Z,45.81
2017-01-22T11:39:30.636Z,45.92
2017-01-22T11:40:35.835Z,46.66
2017-01-22T11:41:41.032Z,46.94
2017-01-22T11:42:46.332Z,47.42
2017-01-22T11:43:52.540Z,47.8
2017-01-22T11:44:58.785Z,47.99
2017-01-22T11:46:04.963Z,47.99
2017-01-22T11:47:11.131Z,47.8
2017-01-22T11:48:16.335Z,48.36
2017-01-22T11:49:21.538Z,48.65
2017-01-22T11:50:25.771Z,49.22
2017-01-22T11:51:31.012Z,49.41
2017-01-22T11:52:37.228Z,49.03
2017-01-22T11:53:43.366Z,49.38
2017-01-22T11:54:48.565Z,49.95
2017-01-22T11:55:54.732Z,50.52
2017-01-22T11:56:58.973Z,50.81
2017-01-22T11:58:05.143Z,50.62
2017-01-22T11:59:09.381Z,50.52
2017-01-22T12:00:15.554Z,50.24
2017-01-22T12:01:17.834Z,50.05
2017-01-22T12:02:23.020Z,50.62
2017-01-22T12:03:28.217Z,50.71
2017-01-22T12:04:32.448Z,49.67
2017-01-22T12:05:35.747Z,49.67
2017-01-22T12:06:38.002Z,49.48
2017-01-22T12:07:40.288Z,49.29
2017-01-22T12:08:45.459Z,49.38
2017-01-22T12:09:51.632Z,49.1
2017-01-22T12:10:57.845Z,49.29
2017-01-22T12:12:02.980Z,49.48
2017-01-22T12:13:09.143Z,49.19
2017-01-22T12:14:14.314Z,49.19
2017-01-22T12:15:20.493Z,49.29
2017-01-22T12:16:24.721Z,49.29
2017-01-22T12:17:30.888Z,48.63
2017-01-22T12:18:37.060Z,49.01
2017-01-22T12:19:42.257Z,48.34
2017-01-22T12:20:47.456Z,48.34
2017-01-22T12:21:52.623Z,48.41
2017-01-22T12:22:58.787Z,48.7
2017-01-22T12:24:03.967Z,49.19
2017-01-22T12:25:10.216Z,49.1
2017-01-22T12:26:14.403Z,48.54
2017-01-22T12:27:19.610Z,48.25
2017-01-22T12:28:23.944Z,48.89
2017-01-22T12:29:28.184Z,48.72
2017-01-22T12:30:33.373Z,48.51
2017-01-22T12:31:38.573Z,48.32
2017-01-22T12:32:43.871Z,47.85
2017-01-22T12:33:50.075Z,47.37
2017-01-22T12:34:56.210Z,48.32
2017-01-22T12:36:01.519Z,48.13
2017-01-22T12:37:05.899Z,48.41
2017-01-22T12:38:12.038Z,48.22
2017-01-22T12:39:17.324Z,47.75
2017-01-22T12:40:21.532Z,48.03
2017-01-22T12:41:25.827Z,47.85
2017-01-22T12:42:31.001Z,48.41
2017-01-22T12:43:37.175Z,47.75
2017-01-22T12:44:43.339Z,48.22
2017-01-22T12:45:48.540Z,48.03
2017-01-22T12:46:52.776Z,48.98
2017-01-22T12:47:58.952Z,48.79
2017-01-22T12:49:04.121Z,49.36
2017-01-22T12:50:09.291Z,49.65
2017-01-22T12:51:14.496Z,49.27
2017-01-22T12:52:19.727Z,48.32
2017-01-22T12:53:23.925Z,47.85
2017-01-22T12:54:30.081Z,48.32
2017-01-22T12:55:35.281Z,48.22
2017-01-22T12:56:40.447Z,47.94
2017-01-22T12:57:45.660Z,48.13
2017-01-22T12:58:51.890Z,47.94
2017-01-22T12:59:56.099Z,49.17
2017-01-22T13:01:01.298Z,48.7
2017-01-22T13:02:06.505Z,48.51
2017-01-22T13:03:11.682Z,49.36
2017-01-22T13:04:16.889Z,49.46
2017-01-22T13:05:21.133Z,49.74
2017-01-22T13:06:26.377Z,51.16
2017-01-22T13:07:32.506Z,50.97
2017-01-22T13:08:38.725Z,50.78
2017-01-22T13:09:43.932Z,50.4
2017-01-22T13:10:49.145Z,51.45
2017-01-22T13:11:54.356Z,50.97
2017-01-22T13:12:59.571Z,51.07
2017-01-22T13:14:04.778Z,50.97
2017-01-22T13:15:10.950Z,51.07
2017-01-22T13:16:16.155Z,50.88
2017-01-22T13:17:22.327Z,50.78
2017-01-22T13:18:27.589Z,50.59
2017-01-22T13:19:31.812Z,50.97
2017-01-22T13:20:38.073Z,50.88
2017-01-22T13:21:43.275Z,50.97
2017-01-22T13:22:48.477Z,50.97
2017-01-22T13:23:53.674Z,51.35
2017-01-22T13:24:59.927Z,51.07
2017-01-22T13:26:05.096Z,51.26
2017-01-22T13:27:09.308Z,50.69
2017-01-22T13:29:21.644Z,50.88
2017-01-22T13:30:27.806Z,50.69
2017-01-22T13:31:33.001Z,51.07
2017-01-22T13:32:38.213Z,51.16
2017-01-22T13:33:44.411Z,50.97
2017-01-22T13:34:49.618Z,51.35
2017-01-22T13:35:55.778Z,51.07
2017-01-22T13:37:00.979Z,50.88
2017-01-22T13:38:07.145Z,51.16
2017-01-22T13:39:12.340Z,51.82
2017-01-22T13:40:17.647Z,51.35
2017-01-22T13:41:23.907Z,51.54
2017-01-22T13:42:30.007Z,52.01
2017-01-22T13:43:36.211Z,52.2
2017-01-22T13:44:42.342Z,51.45
2017-01-22T13:45:48.512Z,50.97
2017-01-22T13:46:54.686Z,51.16
2017-01-22T13:47:58.894Z,51.26
2017-01-22T13:49:05.064Z,50.49
2017-01-22T13:50:10.270Z,50.78
2017-01-22T13:51:16.436Z,50.69
2017-01-22T13:52:21.630Z,50.88
2017-01-22T13:53:27.851Z,50.97
2017-01-22T13:54:33.984Z,51.16
2017-01-22T13:55:40.160Z,51.16
2017-01-22T13:56:45.504Z,50.97
2017-01-22T13:57:50.703Z,51.07
2017-01-22T13:58:56.876Z,50.88
2017-01-22T14:00:02.052Z,50.59
2017-01-22T14:01:08.227Z,50.88
2017-01-22T14:02:13.456Z,50.88
2017-01-22T14:03:19.591Z,50.88
2017-01-22T14:04:25.766Z,50.76
2017-01-22T14:05:30.149Z,50.57
2017-01-22T14:06:36.275Z,50.85